createdAt,value
2018-07-05T00:04:07.155Z,18.70
2018-07-05T00:09:21.701Z,18.60
2018-07-05T00:14:36.146Z,18.50
2018-07-05T00:19:50.678Z,18.60
2018-07-05T00:25:05.249Z,18.50
2018-07-05T00:30:19.892Z,18.40
2018-07-05T00:35:34.476Z,18.50
2018-07-05T00:40:48.947Z,18.40
2018-07-05T00:46:03.544Z,18.40
2018-07-05T00:51:18.055Z,18.30
2018-07-05T00:56:32.887Z,18.30
2018-07-05T01:01:47.531Z,18.40
2018-07-05T01:07:02.233Z,18.30
2018-07-05T01:12:16.937Z,18.20
2018-07-05T01:17:31.463Z,18.20
2018-07-05T01:22:46.098Z,18.20
2018-07-05T01:28:00.854Z,18.20
2018-07-05T01:33:15.520Z,18.10
2018-07-05T01:38:30.327Z,18.00
2018-07-05T01:43:44.891Z,18.00
2018-07-05T01:48:59.426Z,17.90
2018-07-05T01:54:13.963Z,17.90
2018-07-05T01:59:28.717Z,17.80
2018-07-05T02:04:43.378Z,17.80
2018-07-05T02:09:57.941Z,17.70
2018-07-05T02:15:12.592Z,17.70
2018-07-05T02:20:27.065Z,17.70
2018-07-05T02:25:41.431Z,17.60
2018-07-05T02:30:56.015Z,17.60
2018-07-05T02:36:10.659Z,17.60
2018-07-05T02:41:25.261Z,17.60
2018-07-05T02:46:39.980Z,17.60
2018-07-05T02:51:54.629Z,17.60
2018-07-05T02:57:09.444Z,17.60
2018-07-05T03:02:24.104Z,17.60
2018-07-05T03:07:38.667Z,17.60
2018-07-05T03:12:53.269Z,17.60
2018-07-05T03:18:08.000Z,17.70
2018-07-05T03:23:22.476Z,17.70
2018-07-05T03:28:36.905Z,17.80
2018-07-05T03:33:51.704Z,17.90
2018-07-05T03:39:06.411Z,17.90
2018-07-05T03:44:21.095Z,18.00
2018-07-05T03:49:35.564Z,18.10
2018-07-05T03:54:50.113Z,18.10
2018-07-05T04:00:04.789Z,18.30
2018-07-05T04:05:19.483Z,18.50
2018-07-05T04:10:34.029Z,18.70
2018-07-05T04:15:48.709Z,19.10
2018-07-05T04:21:03.321Z,19.40
2018-07-05T04:26:17.845Z,19.60
2018-07-05T04:31:32.553Z,19.80
2018-07-05T04:36:48.363Z,19.90
2018-07-05T04:42:02.920Z,19.90
2018-07-05T04:47:17.632Z,20.00
2018-07-05T04:52:32.369Z,20.10
2018-07-05T04:57:47.260Z,20.30
2018-07-05T05:03:01.724Z,20.20
2018-07-05T05:08:16.326Z,20.30
2018-07-05T05:13:30.802Z,20.50
2018-07-05T05:18:45.581Z,20.70
2018-07-05T05:24:00.220Z,20.80
2018-07-05T05:29:15.029Z,21.10
2018-07-05T05:34:31.109Z,21.30
2018-07-05T05:39:45.659Z,21.50
2018-07-05T05:45:00.372Z,21.70
2018-07-05T05:50:15.019Z,22.10
2018-07-05T05:55:29.602Z,22.30
2018-07-05T06:00:44.213Z,22.60
2018-07-05T06:05:58.915Z,23.40
2018-07-05T06:11:13.448Z,24.50
2018-07-05T06:16:28.124Z,25.40
2018-07-05T06:21:42.757Z,26.50
2018-07-05T06:26:57.606Z,27.00
2018-07-05T06:32:12.263Z,27.80
2018-07-05T06:37:26.791Z,28.20
2018-07-05T06:42:41.571Z,29.30
2018-07-05T06:47:56.032Z,29.50
2018-07-05T06:53:10.640Z,28.40
2018-07-05T06:58:25.340Z,28.00
2018-07-05T07:03:39.896Z,28.70
2018-07-05T07:08:54.514Z,28.70
2018-07-05T07:14:09.127Z,28.80
2018-07-05T07:19:23.678Z,28.80
2018-07-05T07:24:38.383Z,28.70
2018-07-05T07:29:53.061Z,28.50
2018-07-05T07:35:07.757Z,29.00
2018-07-05T07:40:22.333Z,29.70
2018-07-05T07:45:24.644Z,30.70
2018-07-05T07:55:29.287Z,31.80
2018-07-05T08:00:31.744Z,32.20
2018-07-05T08:05:33.962Z,32.20
2018-07-05T08:10:36.167Z,32.50
2018-07-05T08:15:38.335Z,32.60
2018-07-05T08:20:40.532Z,32.50
2018-07-05T08:25:42.723Z,32.80
2018-07-05T08:30:45.888Z,32.20
2018-07-05T08:35:48.083Z,31.80
2018-07-05T08:40:50.251Z,32.40
2018-07-05T08:45:52.473Z,32.40
2018-07-05T08:50:54.637Z,32.80
2018-07-05T08:55:56.805Z,32.90
2018-07-05T09:00:59.035Z,32.90
2018-07-05T09:06:01.196Z,33.00
2018-07-05T09:11:03.388Z,32.40
2018-07-05T09:16:05.572Z,32.10
2018-07-05T09:21:07.810Z,31.70
2018-07-05T09:27:13.068Z,31.70
2018-07-05T09:32:15.283Z,31.20
2018-07-05T09:37:17.581Z,30.90
2018-07-05T09:42:19.763Z,31.20
2018-07-05T09:47:22.814Z,31.20
2018-07-05T09:52:25.049Z,31.40
2018-07-05T09:57:27.178Z,31.40
2018-07-05T10:02:29.365Z,31.10
2018-07-05T10:07:31.538Z,30.60
2018-07-05T10:12:33.809Z,30.40
2018-07-05T10:17:36.039Z,30.40
2018-07-05T10:22:38.235Z,30.60
2018-07-05T10:27:40.418Z,30.60
2018-07-05T10:32:55.114Z,30.90
2018-07-05T10:37:58.765Z,30.50
2018-07-05T10:43:13.332Z,30.50
2018-07-05T10:48:28.092Z,30.50
2018-07-05T10:53:42.639Z,30.30
2018-07-05T10:58:57.347Z,30.30
2018-07-05T11:04:11.933Z,30.40
2018-07-05T11:09:26.623Z,30.10
2018-07-05T11:14:41.297Z,30.00
2018-07-05T11:19:55.793Z,30.20
2018-07-05T11:35:27.640Z,30.60
2018-07-05T11:40:42.152Z,30.60
2018-07-05T11:45:56.840Z,30.20
2018-07-05T11:51:11.623Z,29.90
2018-07-05T11:56:26.377Z,30.00
2018-07-05T12:01:40.887Z,30.20
2018-07-05T12:06:55.479Z,30.10
2018-07-05T12:12:09.979Z,30.10
2018-07-05T12:17:24.732Z,30.40
2018-07-05T12:22:39.471Z,30.70
2018-07-05T12:27:53.928Z,30.80
2018-07-05T12:33:08.545Z,30.80
2018-07-05T12:38:23.040Z,30.90
2018-07-05T12:43:37.693Z,30.80
2018-07-05T12:48:52.197Z,30.80
2018-07-05T12:54:07.591Z,30.70
2018-07-05T12:59:22.296Z,30.80
2018-07-05T13:04:36.803Z,30.80
2018-07-05T13:09:51.307Z,30.80
2018-07-05T13:15:06.038Z,30.70
2018-07-05T13:20:20.617Z,30.90
2018-07-05T13:25:35.180Z,31.10
2018-07-05T13:30:49.876Z,31.10
2018-07-05T13:36:04.517Z,31.10
2018-07-05T13:41:19.167Z,30.90
2018-07-05T13:46:33.694Z,31.00
2018-07-05T13:51:48.245Z,31.00
2018-07-05T13:57:02.931Z,31.00
2018-07-05T14:02:17.588Z,31.00
2018-07-05T14:07:32.306Z,31.10
2018-07-05T14:12:46.851Z,31.10
2018-07-05T14:18:01.637Z,30.90
2018-07-05T14:23:16.374Z,30.50
2018-07-05T14:28:31.593Z,30.20
2018-07-05T14:33:46.216Z,30.10
2018-07-05T14:39:00.997Z,30.40
2018-07-05T14:44:15.728Z,30.60
2018-07-05T14:49:30.294Z,30.70
2018-07-05T14:54:44.847Z,30.60
2018-07-05T14:59:59.362Z,30.70
2018-07-05T15:05:13.812Z,30.40
2018-07-05T15:10:28.455Z,30.40
2018-07-05T15:15:43.160Z,30.20
2018-07-05T15:20:57.635Z,30.30
2018-07-05T15:26:12.240Z,30.30
2018-07-05T15:31:27.204Z,30.10
2018-07-05T15:36:41.776Z,30.10
2018-07-05T15:41:56.595Z,30.10
2018-07-05T15:47:11.128Z,30.00
2018-07-05T15:52:25.678Z,29.90
2018-07-05T15:57:40.389Z,29.90
2018-07-05T16:02:54.920Z,29.80
2018-07-05T16:08:09.524Z,29.80
2018-07-05T16:13:24.044Z,29.50
2018-07-05T16:23:47.085Z,29.50
2018-07-05T16:29:01.759Z,29.40
2018-07-05T16:34:16.356Z,29.40
2018-07-05T16:39:31.118Z,29.40
2018-07-05T16:44:45.709Z,29.30
2018-07-05T16:50:00.254Z,29.00
2018-07-05T16:55:14.692Z,28.90
2018-07-05T17:00:29.479Z,28.80
2018-07-05T17:05:44.045Z,28.70
2018-07-05T17:10:58.687Z,28.60
2018-07-05T17:16:13.372Z,28.50
2018-07-05T17:21:28.127Z,28.50
2018-07-05T17:26:42.488Z,28.50
2018-07-05T17:31:57.093Z,28.40
2018-07-05T17:37:11.439Z,28.20
2018-07-05T17:42:26.231Z,28.20
2018-07-05T17:47:40.768Z,28.20
2018-07-05T17:52:55.391Z,28.10
2018-07-05T17:58:09.934Z,28.10
2018-07-05T18:03:24.530Z,28.10
2018-07-05T18:08:39.234Z,28.10
2018-07-05T18:13:55.077Z,27.90
2018-07-05T18:19:09.696Z,27.90
2018-07-05T18:24:24.159Z,27.80
2018-07-05T18:29:38.890Z,27.60
2018-07-05T18:34:54.671Z,27.50
2018-07-05T18:40:09.366Z,27.40
2018-07-05T18:45:23.985Z,27.30
2018-07-05T18:50:38.667Z,27.20
2018-07-05T18:55:53.374Z,27.00
2018-07-05T19:01:08.031Z,26.90
2018-07-05T19:06:22.673Z,26.80
2018-07-05T19:11:37.441Z,26.70
2018-07-05T19:16:52.162Z,26.50
2018-07-05T19:22:06.723Z,26.40
2018-07-05T19:27:21.780Z,26.10
2018-07-05T19:32:36.445Z,25.90
2018-07-05T19:37:52.075Z,25.70
2018-07-05T19:43:07.545Z,25.50
2018-07-05T19:48:22.193Z,25.40
2018-07-05T19:53:36.999Z,25.20
2018-07-05T19:58:51.730Z,25.00
2018-07-05T20:04:06.243Z,24.80
2018-07-05T20:09:20.929Z,24.70
2018-07-05T20:14:35.511Z,24.60
2018-07-05T20:19:50.265Z,24.40
2018-07-05T20:25:05.727Z,24.30
2018-07-05T20:30:20.456Z,24.20
2018-07-05T20:35:35.193Z,24.00
2018-07-05T20:40:49.737Z,23.80
2018-07-05T20:46:04.256Z,23.70
2018-07-05T20:51:19.130Z,23.60
2018-07-05T20:56:33.751Z,23.50
2018-07-05T21:01:48.494Z,23.40
2018-07-05T21:07:03.113Z,23.30
2018-07-05T21:12:17.696Z,23.10
2018-07-05T21:17:32.438Z,23.00
2018-07-05T21:22:47.281Z,22.90
2018-07-05T21:28:01.884Z,22.80
2018-07-05T21:33:16.570Z,22.70
2018-07-05T21:38:32.135Z,22.60
2018-07-05T21:43:46.688Z,22.40
2018-07-05T21:49:01.513Z,22.40
2018-07-05T21:54:16.285Z,22.30
2018-07-05T21:59:30.997Z,22.20
2018-07-05T22:04:45.746Z,22.10
2018-07-05T22:10:00.398Z,22.00
2018-07-05T22:15:16.211Z,21.80
2018-07-05T22:20:36.344Z,21.60
2018-07-05T22:25:56.371Z,21.50
2018-07-05T22:31:16.560Z,21.40
2018-07-05T22:36:31.290Z,21.20
2018-07-05T22:41:45.844Z,21.10
2018-07-05T22:47:00.646Z,21.00
2018-07-05T22:52:15.216Z,21.00
2018-07-05T22:57:29.940Z,20.90
2018-07-05T23:02:44.467Z,20.80
2018-07-05T23:07:59.012Z,20.70
2018-07-05T23:13:13.761Z,20.60
2018-07-05T23:18:28.489Z,20.40
2018-07-05T23:23:43.037Z,20.40
2018-07-05T23:28:57.701Z,20.30
2018-07-05T23:34:12.374Z,20.20
2018-07-05T23:39:27.326Z,20.10
2018-07-05T23:44:42.088Z,20.00
2018-07-05T23:49:56.517Z,20.00
2018-07-05T23:55:11.019Z,19.90
